createdAt,value
2022-12-11T00:04:43.224Z,98935.88
2022-12-11T00:09:35.929Z,98968.50
2022-12-11T00:14:30.840Z,98983.53
2022-12-11T00:19:24.745Z,98991.38
2022-12-11T00:24:18.562Z,98979.91
2022-12-11T00:29:14.874Z,98947.50
2022-12-11T00:34:08.694Z,98967.31
2022-12-11T00:39:03.549Z,98993.31
2022-12-11T00:43:57.761Z,99002.78
2022-12-11T00:48:50.925Z,98965.38
2022-12-11T00:53:44.982Z,98986.88
2022-12-11T00:58:38.621Z,98988.81
2022-12-11T01:03:32.073Z,98993.44
2022-12-11T01:08:25.868Z,98990.81
2022-12-11T01:13:19.266Z,98977.50
2022-12-11T01:18:16.086Z,98980.06
2022-12-11T01:23:11.259Z,98965.81
2022-12-11T01:28:05.353Z,98998.34
2022-12-11T01:32:58.822Z,98990.03
2022-12-11T01:37:53.166Z,99016.16
2022-12-11T01:42:45.974Z,99011.13
2022-12-11T01:47:38.413Z,99006.53
2022-12-11T01:52:32.355Z,99002.34
2022-12-11T01:57:26.829Z,98990.66
2022-12-11T02:02:24.851Z,98987.28
2022-12-11T02:07:18.970Z,98990.91
2022-12-11T02:12:17.293Z,98994.53
2022-12-11T02:17:23.379Z,98988.81
2022-12-11T02:22:57.846Z,98969.72
2022-12-11T02:28:14.808Z,98965.69
2022-12-11T02:33:09.508Z,98963.94
2022-12-11T02:38:18.930Z,98976.00
2022-12-11T02:43:32.710Z,98965.41
2022-12-11T02:49:05.456Z,98954.00
2022-12-11T02:54:00.361Z,98976.13
2022-12-11T02:59:19.198Z,98980.56
2022-12-11T03:04:12.333Z,98971.19
2022-12-11T03:09:07.823Z,98982.41
2022-12-11T03:14:03.217Z,98964.81
2022-12-11T03:19:35.427Z,98977.94
2022-12-11T03:24:40.350Z,98993.81
2022-12-11T03:29:39.076Z,98959.78
2022-12-11T03:34:42.836Z,98962.41
2022-12-11T03:39:44.781Z,98994.81
2022-12-11T03:44:39.631Z,98979.13
2022-12-11T03:49:39.098Z,98956.94
2022-12-11T03:54:33.136Z,99002.44
2022-12-11T03:59:28.360Z,99002.03
2022-12-11T04:04:21.988Z,98987.63
2022-12-11T04:09:14.733Z,99015.13
2022-12-11T04:14:28.645Z,98981.84
2022-12-11T04:19:40.867Z,99014.31
2022-12-11T04:24:34.111Z,99015.28
2022-12-11T04:29:27.902Z,99016.38
2022-12-11T04:34:21.191Z,99006.28
2022-12-11T04:39:15.070Z,98984.94
2022-12-11T04:44:09.614Z,99017.91
2022-12-11T04:49:04.174Z,99011.66
2022-12-11T04:54:02.698Z,99006.22
2022-12-11T04:58:56.348Z,98995.50
2022-12-11T05:03:50.386Z,98986.16
2022-12-11T05:08:45.758Z,99035.59
2022-12-11T05:13:39.323Z,99034.22
2022-12-11T05:18:32.881Z,99028.38
2022-12-11T05:23:26.752Z,99036.44
2022-12-11T05:28:19.891Z,99020.50
2022-12-11T05:33:14.388Z,99047.81
2022-12-11T05:38:08.759Z,99069.50
2022-12-11T05:43:01.822Z,99063.25
2022-12-11T05:47:55.563Z,99063.75
2022-12-11T05:52:49.540Z,99047.28
2022-12-11T05:57:43.631Z,99053.03
2022-12-11T06:02:37.918Z,99040.84
2022-12-11T06:07:31.955Z,99074.91
2022-12-11T06:12:25.712Z,99056.34
2022-12-11T06:17:20.161Z,99076.88
2022-12-11T06:22:14.030Z,99080.09
2022-12-11T06:27:07.857Z,99072.53
2022-12-11T06:32:01.615Z,99067.88
2022-12-11T06:36:55.174Z,99060.09
2022-12-11T06:41:49.089Z,99053.09
2022-12-11T06:46:42.585Z,99069.91
2022-12-11T06:51:36.377Z,99080.34
2022-12-11T06:56:29.069Z,99081.25
2022-12-11T07:01:27.664Z,99107.06
2022-12-11T07:06:21.254Z,99113.94
2022-12-11T07:11:16.824Z,99084.94
2022-12-11T07:16:12.996Z,99136.31
2022-12-11T07:21:07.324Z,99133.09
2022-12-11T07:26:05.070Z,99133.56
2022-12-11T07:30:58.387Z,99154.84
2022-12-11T07:35:52.690Z,99151.03
2022-12-11T07:40:45.875Z,99172.41
2022-12-11T07:45:39.989Z,99182.41
2022-12-11T07:50:38.148Z,99191.31
2022-12-11T07:55:37.924Z,99211.16
2022-12-11T08:00:31.358Z,99183.41
2022-12-11T08:05:25.162Z,99197.22
2022-12-11T08:10:18.553Z,99229.53
2022-12-11T08:15:13.216Z,99240.25
2022-12-11T08:20:09.042Z,99230.81
2022-12-11T08:25:03.681Z,99259.75
2022-12-11T08:29:57.263Z,99256.00
2022-12-11T08:34:52.753Z,99247.34
2022-12-11T08:39:47.538Z,99253.50
2022-12-11T08:44:40.981Z,99259.03
2022-12-11T08:49:34.889Z,99273.00
2022-12-11T08:54:28.655Z,99248.47
2022-12-11T08:59:21.809Z,99275.78
2022-12-11T09:04:15.654Z,99253.66
2022-12-11T09:09:08.614Z,99285.72
2022-12-11T09:14:07.315Z,99280.81
2022-12-11T09:19:01.474Z,99280.94
2022-12-11T09:23:56.655Z,99310.75
2022-12-11T09:28:51.394Z,99295.47
2022-12-11T09:33:45.582Z,99312.41
2022-12-11T09:38:38.362Z,99306.91
2022-12-11T09:43:54.270Z,99318.69
2022-12-11T09:48:50.155Z,99319.91
2022-12-11T09:53:44.078Z,99340.81
2022-12-11T09:58:51.083Z,99305.69
2022-12-11T10:03:52.891Z,99325.50
2022-12-11T10:09:00.271Z,99318.63
2022-12-11T10:14:18.607Z,99305.47
2022-12-11T10:19:19.741Z,99324.03
2022-12-11T10:25:07.567Z,99320.81
2022-12-11T10:29:41.951Z,99313.69
2022-12-11T10:34:37.831Z,99338.81
2022-12-11T10:39:31.546Z,99295.28
2022-12-11T10:44:36.900Z,99314.38
2022-12-11T10:49:33.199Z,99303.44
2022-12-11T10:54:42.081Z,99317.63
2022-12-11T10:59:43.428Z,99322.94
2022-12-11T11:04:39.779Z,99304.47
2022-12-11T11:10:06.453Z,99326.66
2022-12-11T11:15:28.348Z,99329.91
2022-12-11T11:21:01.153Z,99340.13
2022-12-11T11:26:18.725Z,99318.22
2022-12-11T11:31:54.255Z,99333.00
2022-12-11T11:36:58.241Z,99339.75
2022-12-11T11:42:16.201Z,99336.50
2022-12-11T11:47:18.200Z,99328.59
2022-12-11T11:52:38.798Z,99330.69
2022-12-11T11:58:11.262Z,99327.34
2022-12-11T12:03:21.307Z,99311.75
2022-12-11T12:08:21.104Z,99332.00
2022-12-11T12:13:52.670Z,99341.38
2022-12-11T12:19:11.702Z,99338.47
2022-12-11T12:24:25.045Z,99337.13
2022-12-11T12:29:34.177Z,99351.94
2022-12-11T12:34:33.045Z,99364.94
2022-12-11T12:39:53.202Z,99353.38
2022-12-11T12:45:09.018Z,99365.41
2022-12-11T12:50:05.887Z,99347.13
2022-12-11T12:55:18.947Z,99326.94
2022-12-11T13:00:13.717Z,99352.19
2022-12-11T13:05:20.099Z,99356.41
2022-12-11T13:10:30.249Z,99375.75
2022-12-11T13:15:35.438Z,99364.94
2022-12-11T13:20:31.648Z,99372.88
2022-12-11T13:25:31.315Z,99377.19
2022-12-11T13:30:26.675Z,99357.72
2022-12-11T13:35:20.222Z,99380.72
2022-12-11T13:40:21.992Z,99385.72
2022-12-11T13:45:43.598Z,99378.88
2022-12-11T13:50:55.741Z,99363.97
2022-12-11T13:55:58.653Z,99407.88
2022-12-11T14:01:12.926Z,99417.41
2022-12-11T14:06:19.159Z,99420.03
2022-12-11T14:11:24.111Z,99421.81
2022-12-11T14:16:25.654Z,99422.91
2022-12-11T14:21:24.213Z,99410.16
2022-12-11T14:26:29.756Z,99431.69
2022-12-11T14:31:36.399Z,99433.38
2022-12-11T14:36:32.462Z,99442.88
2022-12-11T14:41:50.048Z,99445.28
2022-12-11T14:47:13.533Z,99435.91
2022-12-11T14:52:15.485Z,99446.59
2022-12-11T14:57:09.079Z,99468.16
2022-12-11T15:02:21.134Z,99453.47
2022-12-11T15:07:21.667Z,99480.06
2022-12-11T15:12:17.714Z,99479.81
2022-12-11T15:17:15.790Z,99467.31
2022-12-11T15:22:13.346Z,99480.66
2022-12-11T15:27:07.082Z,99469.47
2022-12-11T15:32:22.080Z,99488.97
2022-12-11T15:37:29.207Z,99480.66
2022-12-11T15:42:29.689Z,99472.72
2022-12-11T15:47:26.466Z,99510.38
2022-12-11T15:52:20.117Z,99506.66
2022-12-11T15:57:16.975Z,99518.94
2022-12-11T16:02:12.287Z,99522.66
2022-12-11T16:07:06.860Z,99516.66
2022-12-11T16:12:01.201Z,99538.09
2022-12-11T16:16:54.791Z,99541.09
2022-12-11T16:21:48.110Z,99529.53
2022-12-11T16:26:41.563Z,99550.00
2022-12-11T16:31:34.324Z,99543.22
2022-12-11T16:36:29.177Z,99556.09
2022-12-11T16:41:25.097Z,99538.66
2022-12-11T16:46:20.465Z,99544.41
2022-12-11T16:51:14.503Z,99563.19
2022-12-11T16:56:09.383Z,99577.88
2022-12-11T17:01:02.384Z,99550.31
2022-12-11T17:05:56.782Z,99570.78
2022-12-11T17:10:49.818Z,99553.44
2022-12-11T17:15:43.618Z,99544.81
2022-12-11T17:20:40.660Z,99560.31
2022-12-11T17:25:34.815Z,99561.66
2022-12-11T17:30:29.041Z,99562.28
2022-12-11T17:35:23.654Z,99555.41
2022-12-11T17:40:19.233Z,99563.59
2022-12-11T17:45:12.896Z,99550.22
2022-12-11T17:50:07.463Z,99543.84
2022-12-11T17:55:01.231Z,99565.38
2022-12-11T17:59:55.703Z,99568.63
2022-12-11T18:04:49.466Z,99566.31
2022-12-11T18:09:43.330Z,99587.75
2022-12-11T18:14:37.841Z,99566.41
2022-12-11T18:19:32.588Z,99556.97
2022-12-11T18:24:31.966Z,99592.94
2022-12-11T18:29:25.075Z,99599.34
2022-12-11T18:34:18.878Z,99575.97
2022-12-11T18:39:16.846Z,99610.81
2022-12-11T18:44:10.921Z,99584.31
2022-12-11T18:49:04.888Z,99638.03
2022-12-11T18:53:58.491Z,99618.28
2022-12-11T18:58:52.517Z,99620.81
2022-12-11T19:03:45.808Z,99615.41
2022-12-11T19:08:39.090Z,99650.59
2022-12-11T19:13:32.102Z,99621.31
2022-12-11T19:18:27.131Z,99621.56
2022-12-11T19:23:20.967Z,99609.03
2022-12-11T19:28:15.129Z,99628.94
2022-12-11T19:33:08.530Z,99599.03
2022-12-11T19:38:02.194Z,99655.97
2022-12-11T19:42:56.418Z,99641.44
2022-12-11T19:47:49.085Z,99619.78
2022-12-11T19:52:47.602Z,99632.31
2022-12-11T19:57:44.291Z,99651.09
2022-12-11T20:02:39.206Z,99637.84
2022-12-11T20:07:33.538Z,99655.19
2022-12-11T20:12:26.495Z,99655.44
2022-12-11T20:17:21.037Z,99672.06
2022-12-11T20:22:14.224Z,99648.41
2022-12-11T20:27:09.002Z,99683.75
2022-12-11T20:32:02.879Z,99662.63
2022-12-11T20:36:56.849Z,99670.81
2022-12-11T20:41:51.342Z,99684.66
2022-12-11T20:46:44.825Z,99704.06
2022-12-11T20:51:38.022Z,99699.34
2022-12-11T20:56:32.479Z,99694.72
2022-12-11T21:01:29.083Z,99715.88
2022-12-11T21:06:34.599Z,99704.75
2022-12-11T21:11:28.861Z,99701.88
2022-12-11T21:16:22.543Z,99690.91
2022-12-11T21:21:20.052Z,99699.47
2022-12-11T21:26:13.943Z,99688.59
2022-12-11T21:31:11.072Z,99696.41
2022-12-11T21:36:06.549Z,99710.06
2022-12-11T21:41:27.826Z,99707.13
2022-12-11T21:46:24.359Z,99728.19
2022-12-11T21:51:21.778Z,99747.13
2022-12-11T21:56:18.755Z,99751.47
2022-12-11T22:01:15.774Z,99769.16
2022-12-11T22:06:08.807Z,99769.03
2022-12-11T22:11:03.025Z,99783.34
2022-12-11T22:15:57.575Z,99773.09
2022-12-11T22:20:50.523Z,99750.06
2022-12-11T22:25:44.222Z,99740.25
2022-12-11T22:30:39.168Z,99751.34
2022-12-11T22:35:33.396Z,99776.94
2022-12-11T22:40:28.847Z,99780.41
2022-12-11T22:45:24.357Z,99784.88
2022-12-11T22:50:18.579Z,99788.47
2022-12-11T22:55:13.289Z,99786.03
2022-12-11T23:00:12.378Z,99800.13
2022-12-11T23:05:09.347Z,99801.31
2022-12-11T23:10:05.691Z,99772.72
2022-12-11T23:15:03.832Z,99800.47
2022-12-11T23:19:59.325Z,99795.25
2022-12-11T23:24:53.969Z,99812.97
2022-12-11T23:29:47.173Z,99807.78
2022-12-11T23:34:40.543Z,99810.66
2022-12-11T23:39:34.469Z,99789.28
2022-12-11T23:44:27.999Z,99812.34
2022-12-11T23:49:22.429Z,99812.69
2022-12-11T23:54:15.889Z,99814.38
2022-12-11T23:59:13.782Z,99818.81
